sensor_id;sensor_type;location;lat;lon;timestamp;P1;durP1;ratioP1;P2;durP2;ratioP2
7841;SDS011;3966;51.052;13.820;2022-08-18T00:02:13;2.97;;;2.53;;
7841;SDS011;3966;51.052;13.820;2022-08-18T00:04:43;3.75;;;3.45;;
7841;SDS011;3966;51.052;13.820;2022-08-18T00:07:11;3.05;;;2.85;;
7841;SDS011;3966;51.052;13.820;2022-08-18T00:09:39;4.72;;;3.47;;
7841;SDS011;3966;51.052;13.820;2022-08-18T00:12:13;3.40;;;3.10;;
7841;SDS011;3966;51.052;13.820;2022-08-18T00:14:41;3.33;;;3.03;;
7841;SDS011;3966;51.052;13.820;2022-08-18T00:17:06;3.42;;;3.13;;
7841;SDS011;3966;51.052;13.820;2022-08-18T00:19:32;3.92;;;3.30;;
7841;SDS011;3966;51.052;13.820;2022-08-18T00:21:58;3.20;;;3.00;;
7841;SDS011;3966;51.052;13.820;2022-08-18T00:24:24;4.13;;;3.13;;
7841;SDS011;3966;51.052;13.820;2022-08-18T00:26:50;5.13;;;3.50;;
7841;SDS011;3966;51.052;13.820;2022-08-18T00:29:15;3.88;;;3.45;;
7841;SDS011;3966;51.052;13.820;2022-08-18T00:31:41;3.50;;;3.05;;
7841;SDS011;3966;51.052;13.820;2022-08-18T00:34:06;3.08;;;2.78;;
7841;SDS011;3966;51.052;13.820;2022-08-18T00:36:32;3.15;;;2.72;;
7841;SDS011;3966;51.052;13.820;2022-08-18T00:38:58;4.05;;;3.40;;
7841;SDS011;3966;51.052;13.820;2022-08-18T00:41:25;3.17;;;2.90;;
7841;SDS011;3966;51.052;13.820;2022-08-18T00:43:51;3.13;;;2.88;;
7841;SDS011;3966;51.052;13.820;2022-08-18T00:46:20;5.68;;;3.30;;
7841;SDS011;3966;51.052;13.820;2022-08-18T00:48:48;3.92;;;3.40;;
7841;SDS011;3966;51.052;13.820;2022-08-18T00:51:16;3.65;;;3.35;;
7841;SDS011;3966;51.052;13.820;2022-08-18T00:53:47;3.72;;;3.40;;
7841;SDS011;3966;51.052;13.820;2022-08-18T00:56:19;4.43;;;3.10;;
7841;SDS011;3966;51.052;13.820;2022-08-18T00:58:51;3.95;;;3.05;;
7841;SDS011;3966;51.052;13.820;2022-08-18T01:01:22;8.10;;;3.40;;
7841;SDS011;3966;51.052;13.820;2022-08-18T01:03:51;4.43;;;3.25;;
7841;SDS011;3966;51.052;13.820;2022-08-18T01:06:31;3.53;;;3.22;;
7841;SDS011;3966;51.052;13.820;2022-08-18T01:09:19;4.60;;;3.00;;
7841;SDS011;3966;51.052;13.820;2022-08-18T01:11:44;3.67;;;3.38;;
7841;SDS011;3966;51.052;13.820;2022-08-18T01:14:11;7.55;;;3.80;;
7841;SDS011;3966;51.052;13.820;2022-08-18T01:16:40;4.43;;;3.03;;
7841;SDS011;3966;51.052;13.820;2022-08-18T01:19:25;6.10;;;3.75;;
7841;SDS011;3966;51.052;13.820;2022-08-18T01:22:13;6.05;;;3.65;;
7841;SDS011;3966;51.052;13.820;2022-08-18T01:24:53;4.10;;;3.15;;
7841;SDS011;3966;51.052;13.820;2022-08-18T01:27:40;7.38;;;3.67;;
7841;SDS011;3966;51.052;13.820;2022-08-18T01:30:09;4.07;;;3.33;;
7841;SDS011;3966;51.052;13.820;2022-08-18T01:32:37;3.22;;;3.03;;
7841;SDS011;3966;51.052;13.820;2022-08-18T01:35:04;3.45;;;3.15;;
7841;SDS011;3966;51.052;13.820;2022-08-18T01:37:33;3.83;;;3.53;;
7841;SDS011;3966;51.052;13.820;2022-08-18T01:39:59;7.63;;;3.42;;
7841;SDS011;3966;51.052;13.820;2022-08-18T01:42:29;8.30;;;3.33;;
7841;SDS011;3966;51.052;13.820;2022-08-18T01:44:54;4.20;;;3.80;;
7841;SDS011;3966;51.052;13.820;2022-08-18T01:47:20;4.60;;;3.40;;
7841;SDS011;3966;51.052;13.820;2022-08-18T01:49:46;4.35;;;3.95;;
7841;SDS011;3966;51.052;13.820;2022-08-18T01:52:16;4.28;;;3.50;;
7841;SDS011;3966;51.052;13.820;2022-08-18T01:54:44;3.95;;;3.47;;
7841;SDS011;3966;51.052;13.820;2022-08-18T01:57:10;3.97;;;3.58;;
7841;SDS011;3966;51.052;13.820;2022-08-18T01:59:37;3.95;;;3.58;;
7841;SDS011;3966;51.052;13.820;2022-08-18T02:02:03;4.05;;;3.65;;
7841;SDS011;3966;51.052;13.820;2022-08-18T02:04:29;4.82;;;3.95;;
7841;SDS011;3966;51.052;13.820;2022-08-18T02:06:58;4.78;;;3.90;;
7841;SDS011;3966;51.052;13.820;2022-08-18T02:09:25;5.30;;;3.40;;
7841;SDS011;3966;51.052;13.820;2022-08-18T02:11:51;4.45;;;3.58;;
7841;SDS011;3966;51.052;13.820;2022-08-18T02:14:17;5.43;;;3.42;;
7841;SDS011;3966;51.052;13.820;2022-08-18T02:16:42;4.22;;;3.83;;
7841;SDS011;3966;51.052;13.820;2022-08-18T02:19:08;3.78;;;3.47;;
7841;SDS011;3966;51.052;13.820;2022-08-18T02:21:33;7.57;;;3.60;;
7841;SDS011;3966;51.052;13.820;2022-08-18T02:23:59;4.15;;;3.80;;
7841;SDS011;3966;51.052;13.820;2022-08-18T02:26:25;4.60;;;3.30;;
7841;SDS011;3966;51.052;13.820;2022-08-18T02:28:50;4.40;;;3.25;;
7841;SDS011;3966;51.052;13.820;2022-08-18T02:31:17;3.75;;;3.45;;
7841;SDS011;3966;51.052;13.820;2022-08-18T02:33:46;4.70;;;3.40;;
7841;SDS011;3966;51.052;13.820;2022-08-18T02:36:12;4.05;;;3.47;;
7841;SDS011;3966;51.052;13.820;2022-08-18T02:38:39;4.72;;;3.47;;
7841;SDS011;3966;51.052;13.820;2022-08-18T02:41:06;4.30;;;3.90;;
7841;SDS011;3966;51.052;13.820;2022-08-18T02:43:34;4.38;;;3.58;;
7841;SDS011;3966;51.052;13.820;2022-08-18T02:46:01;5.03;;;3.78;;
7841;SDS011;3966;51.052;13.820;2022-08-18T02:48:27;4.18;;;3.88;;
7841;SDS011;3966;51.052;13.820;2022-08-18T02:51:12;4.85;;;3.58;;
7841;SDS011;3966;51.052;13.820;2022-08-18T02:53:40;3.75;;;3.35;;
7841;SDS011;3966;51.052;13.820;2022-08-18T02:58:49;3.78;;;3.42;;
7841;SDS011;3966;51.052;13.820;2022-08-18T03:01:17;6.03;;;3.90;;
7841;SDS011;3966;51.052;13.820;2022-08-18T03:03:43;4.00;;;3.60;;
7841;SDS011;3966;51.052;13.820;2022-08-18T03:06:09;3.70;;;3.40;;
7841;SDS011;3966;51.052;13.820;2022-08-18T03:08:34;3.50;;;3.30;;
7841;SDS011;3966;51.052;13.820;2022-08-18T03:11:00;4.88;;;3.35;;
7841;SDS011;3966;51.052;13.820;2022-08-18T03:13:25;4.40;;;4.00;;
7841;SDS011;3966;51.052;13.820;2022-08-18T03:15:51;6.70;;;4.18;;
7841;SDS011;3966;51.052;13.820;2022-08-18T03:18:17;3.65;;;3.35;;
7841;SDS011;3966;51.052;13.820;2022-08-18T03:20:42;5.03;;;3.72;;
7841;SDS011;3966;51.052;13.820;2022-08-18T03:23:09;4.63;;;3.72;;
7841;SDS011;3966;51.052;13.820;2022-08-18T03:25:35;5.90;;;4.28;;
7841;SDS011;3966;51.052;13.820;2022-08-18T03:28:01;5.22;;;3.75;;
7841;SDS011;3966;51.052;13.820;2022-08-18T03:30:28;6.93;;;4.10;;
7841;SDS011;3966;51.052;13.820;2022-08-18T03:32:53;3.85;;;3.47;;
7841;SDS011;3966;51.052;13.820;2022-08-18T03:35:19;4.85;;;3.90;;
7841;SDS011;3966;51.052;13.820;2022-08-18T03:37:44;5.63;;;4.18;;
7841;SDS011;3966;51.052;13.820;2022-08-18T03:40:10;6.22;;;3.92;;
7841;SDS011;3966;51.052;13.820;2022-08-18T03:42:36;8.40;;;3.88;;
7841;SDS011;3966;51.052;13.820;2022-08-18T03:45:02;5.93;;;4.13;;
7841;SDS011;3966;51.052;13.820;2022-08-18T03:47:30;4.88;;;4.10;;
7841;SDS011;3966;51.052;13.820;2022-08-18T03:49:56;4.13;;;3.72;;
7841;SDS011;3966;51.052;13.820;2022-08-18T03:52:21;4.75;;;3.85;;
7841;SDS011;3966;51.052;13.820;2022-08-18T03:54:47;7.72;;;4.10;;
7841;SDS011;3966;51.052;13.820;2022-08-18T03:57:12;6.53;;;3.67;;
7841;SDS011;3966;51.052;13.820;2022-08-18T03:59:38;5.35;;;4.10;;
7841;SDS011;3966;51.052;13.820;2022-08-18T04:02:05;4.32;;;3.92;;
7841;SDS011;3966;51.052;13.820;2022-08-18T04:04:31;5.93;;;4.10;;
7841;SDS011;3966;51.052;13.820;2022-08-18T04:06:58;4.70;;;4.18;;
7841;SDS011;3966;51.052;13.820;2022-08-18T04:09:28;4.30;;;3.88;;
7841;SDS011;3966;51.052;13.820;2022-08-18T04:11:55;6.30;;;4.03;;
7841;SDS011;3966;51.052;13.820;2022-08-18T04:14:26;4.50;;;3.88;;
7841;SDS011;3966;51.052;13.820;2022-08-18T04:16:56;8.57;;;4.07;;
7841;SDS011;3966;51.052;13.820;2022-08-18T04:19:22;5.07;;;4.18;;
7841;SDS011;3966;51.052;13.820;2022-08-18T04:21:50;8.40;;;4.20;;
7841;SDS011;3966;51.052;13.820;2022-08-18T04:24:16;4.85;;;4.10;;
7841;SDS011;3966;51.052;13.820;2022-08-18T04:26:44;4.55;;;3.95;;
7841;SDS011;3966;51.052;13.820;2022-08-18T04:29:12;10.15;;;4.47;;
7841;SDS011;3966;51.052;13.820;2022-08-18T04:31:41;6.07;;;4.25;;
7841;SDS011;3966;51.052;13.820;2022-08-18T04:34:07;7.15;;;4.00;;
7841;SDS011;3966;51.052;13.820;2022-08-18T04:36:33;5.00;;;4.38;;
7841;SDS011;3966;51.052;13.820;2022-08-18T04:39:01;4.35;;;3.95;;
7841;SDS011;3966;51.052;13.820;2022-08-18T04:41:29;5.55;;;4.28;;
7841;SDS011;3966;51.052;13.820;2022-08-18T04:43:56;4.88;;;4.20;;
7841;SDS011;3966;51.052;13.820;2022-08-18T04:46:22;4.80;;;4.40;;
7841;SDS011;3966;51.052;13.820;2022-08-18T04:48:48;5.43;;;4.03;;
7841;SDS011;3966;51.052;13.820;2022-08-18T04:51:16;4.53;;;3.88;;
7841;SDS011;3966;51.052;13.820;2022-08-18T04:53:42;4.85;;;4.32;;
7841;SDS011;3966;51.052;13.820;2022-08-18T04:56:08;4.22;;;3.92;;
7841;SDS011;3966;51.052;13.820;2022-08-18T05:01:10;4.90;;;4.50;;
7841;SDS011;3966;51.052;13.820;2022-08-18T05:03:35;3.83;;;3.47;;
7841;SDS011;3966;51.052;13.820;2022-08-18T05:06:02;4.28;;;3.88;;
7841;SDS011;3966;51.052;13.820;2022-08-18T05:08:28;6.28;;;4.43;;
7841;SDS011;3966;51.052;13.820;2022-08-18T05:10:55;4.60;;;4.20;;
7841;SDS011;3966;51.052;13.820;2022-08-18T05:13:21;4.95;;;4.38;;
7841;SDS011;3966;51.052;13.820;2022-08-18T05:15:54;6.70;;;4.55;;
7841;SDS011;3966;51.052;13.820;2022-08-18T05:18:21;7.55;;;4.63;;
7841;SDS011;3966;51.052;13.820;2022-08-18T05:20:49;10.20;;;4.75;;
7841;SDS011;3966;51.052;13.820;2022-08-18T05:23:16;6.22;;;4.80;;
7841;SDS011;3966;51.052;13.820;2022-08-18T05:25:42;6.32;;;4.53;;
7841;SDS011;3966;51.052;13.820;2022-08-18T05:28:07;6.80;;;4.93;;
7841;SDS011;3966;51.052;13.820;2022-08-18T05:30:33;6.78;;;5.10;;
7841;SDS011;3966;51.052;13.820;2022-08-18T05:33:00;5.05;;;4.53;;
7841;SDS011;3966;51.052;13.820;2022-08-18T05:35:32;7.88;;;5.20;;
7841;SDS011;3966;51.052;13.820;2022-08-18T05:38:14;8.07;;;4.30;;
7841;SDS011;3966;51.052;13.820;2022-08-18T05:43:07;5.50;;;4.00;;
7841;SDS011;3966;51.052;13.820;2022-08-18T05:45:35;9.18;;;4.88;;
7841;SDS011;3966;51.052;13.820;2022-08-18T05:48:00;8.10;;;4.82;;
7841;SDS011;3966;51.052;13.820;2022-08-18T05:50:26;5.00;;;4.47;;
7841;SDS011;3966;51.052;13.820;2022-08-18T05:52:59;9.43;;;4.68;;
7841;SDS011;3966;51.052;13.820;2022-08-18T05:55:33;7.97;;;5.10;;
7841;SDS011;3966;51.052;13.820;2022-08-18T05:58:34;6.43;;;4.80;;
7841;SDS011;3966;51.052;13.820;2022-08-18T06:01:08;5.75;;;5.15;;
7841;SDS011;3966;51.052;13.820;2022-08-18T06:03:43;8.52;;;4.82;;
7841;SDS011;3966;51.052;13.820;2022-08-18T06:06:21;10.00;;;5.07;;
7841;SDS011;3966;51.052;13.820;2022-08-18T06:08:57;11.48;;;5.15;;
7841;SDS011;3966;51.052;13.820;2022-08-18T06:11:32;5.68;;;5.05;;
7841;SDS011;3966;51.052;13.820;2022-08-18T06:13:58;7.38;;;5.05;;
7841;SDS011;3966;51.052;13.820;2022-08-18T06:16:38;6.95;;;5.15;;
7841;SDS011;3966;51.052;13.820;2022-08-18T06:19:21;5.15;;;4.65;;
7841;SDS011;3966;51.052;13.820;2022-08-18T06:22:12;6.63;;;5.00;;
7841;SDS011;3966;51.052;13.820;2022-08-18T06:32:42;6.45;;;4.93;;
7841;SDS011;3966;51.052;13.820;2022-08-18T06:35:27;5.68;;;5.18;;
7841;SDS011;3966;51.052;13.820;2022-08-18T06:41:07;6.63;;;5.38;;
7841;SDS011;3966;51.052;13.820;2022-08-18T06:43:36;6.68;;;5.90;;
7841;SDS011;3966;51.052;13.820;2022-08-18T06:46:08;7.63;;;5.30;;
7841;SDS011;3966;51.052;13.820;2022-08-18T06:48:44;5.13;;;4.72;;
7841;SDS011;3966;51.052;13.820;2022-08-18T06:51:25;8.95;;;5.13;;
7841;SDS011;3966;51.052;13.820;2022-08-18T06:56:22;7.55;;;5.45;;
7841;SDS011;3966;51.052;13.820;2022-08-18T06:58:48;7.75;;;5.35;;
7841;SDS011;3966;51.052;13.820;2022-08-18T07:01:16;10.65;;;5.95;;
7841;SDS011;3966;51.052;13.820;2022-08-18T07:03:50;6.85;;;5.05;;
7841;SDS011;3966;51.052;13.820;2022-08-18T07:06:23;5.95;;;5.35;;
7841;SDS011;3966;51.052;13.820;2022-08-18T07:08:53;6.57;;;5.70;;
7841;SDS011;3966;51.052;13.820;2022-08-18T07:11:39;7.93;;;5.60;;
7841;SDS011;3966;51.052;13.820;2022-08-18T07:14:20;6.53;;;5.55;;
7841;SDS011;3966;51.052;13.820;2022-08-18T07:16:46;7.00;;;5.38;;
7841;SDS011;3966;51.052;13.820;2022-08-18T07:19:13;6.50;;;4.63;;
7841;SDS011;3966;51.052;13.820;2022-08-18T07:21:44;6.72;;;5.55;;
7841;SDS011;3966;51.052;13.820;2022-08-18T07:24:20;7.63;;;5.63;;
7841;SDS011;3966;51.052;13.820;2022-08-18T07:27:00;5.50;;;5.00;;
7841;SDS011;3966;51.052;13.820;2022-08-18T07:29:57;7.45;;;5.05;;
7841;SDS011;3966;51.052;13.820;2022-08-18T07:32:34;7.20;;;5.10;;
7841;SDS011;3966;51.052;13.820;2022-08-18T07:35:18;6.95;;;5.05;;
7841;SDS011;3966;51.052;13.820;2022-08-18T07:37:55;9.85;;;5.32;;
7841;SDS011;3966;51.052;13.820;2022-08-18T07:40:37;6.22;;;5.18;;
7841;SDS011;3966;51.052;13.820;2022-08-18T07:43:40;7.32;;;4.88;;
7841;SDS011;3966;51.052;13.820;2022-08-18T07:48:54;6.97;;;5.32;;
7841;SDS011;3966;51.052;13.820;2022-08-18T07:51:21;6.00;;;4.82;;
7841;SDS011;3966;51.052;13.820;2022-08-18T07:59:42;13.57;;;6.32;;
7841;SDS011;3966;51.052;13.820;2022-08-18T08:08:13;7.00;;;5.78;;
7841;SDS011;3966;51.052;13.820;2022-08-18T08:11:05;6.57;;;5.55;;
7841;SDS011;3966;51.052;13.820;2022-08-18T08:16:50;8.55;;;5.30;;
7841;SDS011;3966;51.052;13.820;2022-08-18T08:19:37;8.82;;;5.45;;
7841;SDS011;3966;51.052;13.820;2022-08-18T08:25:24;5.28;;;4.78;;
7841;SDS011;3966;51.052;13.820;2022-08-18T08:27:59;6.10;;;5.55;;
7841;SDS011;3966;51.052;13.820;2022-08-18T08:30:33;5.80;;;5.30;;
7841;SDS011;3966;51.052;13.820;2022-08-18T08:36:17;7.13;;;5.65;;
7841;SDS011;3966;51.052;13.820;2022-08-18T08:39:00;6.25;;;5.20;;
7841;SDS011;3966;51.052;13.820;2022-08-18T08:41:38;6.63;;;5.45;;
7841;SDS011;3966;51.052;13.820;2022-08-18T08:47:06;9.25;;;5.78;;
7841;SDS011;3966;51.052;13.820;2022-08-18T08:49:57;7.63;;;5.60;;
7841;SDS011;3966;51.052;13.820;2022-08-18T08:52:36;6.60;;;5.68;;
7841;SDS011;3966;51.052;13.820;2022-08-18T08:55:15;8.98;;;5.57;;
7841;SDS011;3966;51.052;13.820;2022-08-18T08:57:49;9.90;;;6.32;;
7841;SDS011;3966;51.052;13.820;2022-08-18T09:00:32;6.32;;;5.43;;
7841;SDS011;3966;51.052;13.820;2022-08-18T09:03:01;6.45;;;5.50;;
7841;SDS011;3966;51.052;13.820;2022-08-18T09:06:02;6.80;;;5.43;;
7841;SDS011;3966;51.052;13.820;2022-08-18T09:08:52;5.97;;;5.13;;
7841;SDS011;3966;51.052;13.820;2022-08-18T09:17:32;12.27;;;5.75;;
7841;SDS011;3966;51.052;13.820;2022-08-18T09:23:03;6.93;;;5.85;;
7841;SDS011;3966;51.052;13.820;2022-08-18T09:28:07;8.57;;;5.90;;
7841;SDS011;3966;51.052;13.820;2022-08-18T09:30:43;6.03;;;5.30;;
7841;SDS011;3966;51.052;13.820;2022-08-18T09:36:22;8.10;;;5.40;;
7841;SDS011;3966;51.052;13.820;2022-08-18T09:42:12;9.32;;;5.32;;
7841;SDS011;3966;51.052;13.820;2022-08-18T09:47:55;8.82;;;4.97;;
7841;SDS011;3966;51.052;13.820;2022-08-18T10:05:21;6.15;;;5.55;;
7841;SDS011;3966;51.052;13.820;2022-08-18T10:10:27;9.50;;;5.38;;
7841;SDS011;3966;51.052;13.820;2022-08-18T10:15:45;6.80;;;5.60;;
7841;SDS011;3966;51.052;13.820;2022-08-18T10:21:10;10.50;;;5.18;;
7841;SDS011;3966;51.052;13.820;2022-08-18T10:29:01;6.28;;;5.05;;
7841;SDS011;3966;51.052;13.820;2022-08-18T10:37:12;7.75;;;5.10;;
7841;SDS011;3966;51.052;13.820;2022-08-18T10:42:41;7.22;;;5.28;;
7841;SDS011;3966;51.052;13.820;2022-08-18T10:48:22;8.02;;;5.55;;
7841;SDS011;3966;51.052;13.820;2022-08-18T10:50:51;8.38;;;5.35;;
7841;SDS011;3966;51.052;13.820;2022-08-18T10:59:00;10.00;;;4.85;;
7841;SDS011;3966;51.052;13.820;2022-08-18T11:04:34;5.60;;;4.40;;
7841;SDS011;3966;51.052;13.820;2022-08-18T11:07:13;9.38;;;4.60;;
7841;SDS011;3966;51.052;13.820;2022-08-18T11:09:40;16.85;;;4.63;;
7841;SDS011;3966;51.052;13.820;2022-08-18T11:12:07;7.15;;;3.95;;
7841;SDS011;3966;51.052;13.820;2022-08-18T11:17:32;9.20;;;4.32;;
7841;SDS011;3966;51.052;13.820;2022-08-18T11:20:06;8.30;;;4.15;;
7841;SDS011;3966;51.052;13.820;2022-08-18T11:22:35;5.55;;;4.28;;
7841;SDS011;3966;51.052;13.820;2022-08-18T11:25:02;8.55;;;4.55;;
7841;SDS011;3966;51.052;13.820;2022-08-18T11:27:44;5.43;;;4.22;;
7841;SDS011;3966;51.052;13.820;2022-08-18T11:30:11;5.32;;;4.28;;
7841;SDS011;3966;51.052;13.820;2022-08-18T11:32:38;10.02;;;4.43;;
7841;SDS011;3966;51.052;13.820;2022-08-18T11:35:10;5.35;;;4.20;;
7841;SDS011;3966;51.052;13.820;2022-08-18T11:37:44;9.10;;;4.35;;
7841;SDS011;3966;51.052;13.820;2022-08-18T11:42:54;8.30;;;4.65;;
7841;SDS011;3966;51.052;13.820;2022-08-18T11:56:03;5.95;;;4.57;;
7841;SDS011;3966;51.052;13.820;2022-08-18T12:01:04;10.90;;;5.15;;
7841;SDS011;3966;51.052;13.820;2022-08-18T12:03:37;9.98;;;4.88;;
7841;SDS011;3966;51.052;13.820;2022-08-18T12:06:20;9.88;;;5.22;;
7841;SDS011;3966;51.052;13.820;2022-08-18T12:09:35;11.65;;;5.50;;
7841;SDS011;3966;51.052;13.820;2022-08-18T12:11:55;5.75;;;5.22;;
7841;SDS011;3966;51.052;13.820;2022-08-18T12:14:28;10.50;;;5.45;;
7841;SDS011;3966;51.052;13.820;2022-08-18T12:16:55;11.13;;;5.20;;
7841;SDS011;3966;51.052;13.820;2022-08-18T12:19:21;9.02;;;4.90;;
7841;SDS011;3966;51.052;13.820;2022-08-18T12:21:52;9.00;;;4.80;;
7841;SDS011;3966;51.052;13.820;2022-08-18T12:24:21;6.55;;;4.80;;
7841;SDS011;3966;51.052;13.820;2022-08-18T12:26:47;7.88;;;4.80;;
7841;SDS011;3966;51.052;13.820;2022-08-18T12:29:14;6.43;;;5.03;;
7841;SDS011;3966;51.052;13.820;2022-08-18T12:31:43;6.72;;;4.93;;
7841;SDS011;3966;51.052;13.820;2022-08-18T12:34:09;8.00;;;4.97;;
7841;SDS011;3966;51.052;13.820;2022-08-18T12:36:34;13.02;;;5.07;;
7841;SDS011;3966;51.052;13.820;2022-08-18T12:39:00;7.50;;;4.72;;
7841;SDS011;3966;51.052;13.820;2022-08-18T12:41:26;8.45;;;4.63;;
7841;SDS011;3966;51.052;13.820;2022-08-18T12:43:51;9.80;;;4.72;;
7841;SDS011;3966;51.052;13.820;2022-08-18T12:46:17;9.68;;;5.28;;
7841;SDS011;3966;51.052;13.820;2022-08-18T12:48:44;9.63;;;4.95;;
7841;SDS011;3966;51.052;13.820;2022-08-18T12:51:09;11.68;;;5.50;;
7841;SDS011;3966;51.052;13.820;2022-08-18T12:53:36;7.10;;;5.10;;
7841;SDS011;3966;51.052;13.820;2022-08-18T12:56:02;6.07;;;5.47;;
7841;SDS011;3966;51.052;13.820;2022-08-18T12:58:28;11.48;;;5.28;;
7841;SDS011;3966;51.052;13.820;2022-08-18T13:00:54;10.77;;;5.50;;
7841;SDS011;3966;51.052;13.820;2022-08-18T13:03:20;10.52;;;5.60;;
7841;SDS011;3966;51.052;13.820;2022-08-18T13:05:46;7.88;;;5.32;;
7841;SDS011;3966;51.052;13.820;2022-08-18T13:08:15;10.00;;;5.13;;
7841;SDS011;3966;51.052;13.820;2022-08-18T13:10:43;8.20;;;5.05;;
7841;SDS011;3966;51.052;13.820;2022-08-18T13:13:08;11.30;;;4.97;;
7841;SDS011;3966;51.052;13.820;2022-08-18T13:15:34;6.70;;;4.97;;
7841;SDS011;3966;51.052;13.820;2022-08-18T13:18:00;9.23;;;5.28;;
7841;SDS011;3966;51.052;13.820;2022-08-18T13:20:26;8.40;;;5.28;;
7841;SDS011;3966;51.052;13.820;2022-08-18T13:22:52;8.07;;;5.28;;
7841;SDS011;3966;51.052;13.820;2022-08-18T13:25:18;5.75;;;5.03;;
7841;SDS011;3966;51.052;13.820;2022-08-18T13:27:44;10.38;;;5.22;;
7841;SDS011;3966;51.052;13.820;2022-08-18T13:30:11;10.00;;;5.65;;
7841;SDS011;3966;51.052;13.820;2022-08-18T13:32:39;7.10;;;5.53;;
7841;SDS011;3966;51.052;13.820;2022-08-18T13:35:05;10.95;;;5.20;;
7841;SDS011;3966;51.052;13.820;2022-08-18T13:37:31;9.02;;;5.07;;
7841;SDS011;3966;51.052;13.820;2022-08-18T13:39:58;11.00;;;5.43;;
7841;SDS011;3966;51.052;13.820;2022-08-18T13:42:24;6.82;;;5.03;;
7841;SDS011;3966;51.052;13.820;2022-08-18T13:44:53;12.18;;;5.38;;
7841;SDS011;3966;51.052;13.820;2022-08-18T13:47:19;8.93;;;5.82;;
7841;SDS011;3966;51.052;13.820;2022-08-18T13:49:46;12.00;;;5.30;;
7841;SDS011;3966;51.052;13.820;2022-08-18T13:52:11;5.82;;;4.90;;
7841;SDS011;3966;51.052;13.820;2022-08-18T13:54:38;10.25;;;5.57;;
7841;SDS011;3966;51.052;13.820;2022-08-18T13:57:04;6.65;;;5.10;;
7841;SDS011;3966;51.052;13.820;2022-08-18T13:59:30;11.45;;;5.43;;
7841;SDS011;3966;51.052;13.820;2022-08-18T14:01:58;12.18;;;5.80;;
7841;SDS011;3966;51.052;13.820;2022-08-18T14:04:25;18.25;;;5.43;;
7841;SDS011;3966;51.052;13.820;2022-08-18T14:06:51;8.20;;;5.82;;
7841;SDS011;3966;51.052;13.820;2022-08-18T14:09:19;17.48;;;5.53;;
7841;SDS011;3966;51.052;13.820;2022-08-18T14:11:44;7.85;;;5.40;;
7841;SDS011;3966;51.052;13.820;2022-08-18T14:14:11;11.13;;;5.20;;
7841;SDS011;3966;51.052;13.820;2022-08-18T14:16:37;9.82;;;5.40;;
7841;SDS011;3966;51.052;13.820;2022-08-18T14:19:03;12.15;;;5.13;;
7841;SDS011;3966;51.052;13.820;2022-08-18T14:21:48;9.57;;;5.53;;
7841;SDS011;3966;51.052;13.820;2022-08-18T14:24:34;11.65;;;6.18;;
7841;SDS011;3966;51.052;13.820;2022-08-18T14:27:23;10.20;;;5.75;;
7841;SDS011;3966;51.052;13.820;2022-08-18T14:29:53;9.40;;;5.45;;
7841;SDS011;3966;51.052;13.820;2022-08-18T14:32:20;7.55;;;6.10;;
7841;SDS011;3966;51.052;13.820;2022-08-18T14:34:46;19.38;;;6.32;;
7841;SDS011;3966;51.052;13.820;2022-08-18T14:37:12;6.97;;;5.25;;
7841;SDS011;3966;51.052;13.820;2022-08-18T14:39:38;12.70;;;5.50;;
7841;SDS011;3966;51.052;13.820;2022-08-18T14:42:03;11.32;;;6.18;;
7841;SDS011;3966;51.052;13.820;2022-08-18T14:44:29;11.05;;;5.93;;
7841;SDS011;3966;51.052;13.820;2022-08-18T14:46:54;11.73;;;6.03;;
7841;SDS011;3966;51.052;13.820;2022-08-18T14:49:24;7.32;;;5.95;;
7841;SDS011;3966;51.052;13.820;2022-08-18T14:51:50;12.85;;;5.88;;
7841;SDS011;3966;51.052;13.820;2022-08-18T14:54:16;8.65;;;5.80;;
7841;SDS011;3966;51.052;13.820;2022-08-18T14:56:42;15.43;;;5.70;;
7841;SDS011;3966;51.052;13.820;2022-08-18T14:59:07;11.55;;;5.88;;
7841;SDS011;3966;51.052;13.820;2022-08-18T15:01:34;12.43;;;6.03;;
7841;SDS011;3966;51.052;13.820;2022-08-18T15:04:01;6.95;;;5.97;;
7841;SDS011;3966;51.052;13.820;2022-08-18T15:06:27;9.63;;;6.85;;
7841;SDS011;3966;51.052;13.820;2022-08-18T15:08:53;8.32;;;6.00;;
7841;SDS011;3966;51.052;13.820;2022-08-18T15:11:19;6.80;;;5.70;;
7841;SDS011;3966;51.052;13.820;2022-08-18T15:13:45;7.35;;;5.93;;
7841;SDS011;3966;51.052;13.820;2022-08-18T15:16:11;9.77;;;6.30;;
7841;SDS011;3966;51.052;13.820;2022-08-18T15:18:38;13.05;;;6.78;;
7841;SDS011;3966;51.052;13.820;2022-08-18T15:21:04;8.40;;;6.03;;
7841;SDS011;3966;51.052;13.820;2022-08-18T15:23:49;7.28;;;6.57;;
7841;SDS011;3966;51.052;13.820;2022-08-18T15:26:33;7.55;;;5.88;;
7841;SDS011;3966;51.052;13.820;2022-08-18T15:28:59;9.82;;;6.35;;
7841;SDS011;3966;51.052;13.820;2022-08-18T15:31:25;9.70;;;5.85;;
7841;SDS011;3966;51.052;13.820;2022-08-18T15:33:51;12.88;;;6.30;;
7841;SDS011;3966;51.052;13.820;2022-08-18T15:36:18;7.03;;;6.03;;
7841;SDS011;3966;51.052;13.820;2022-08-18T15:38:46;7.38;;;5.60;;
7841;SDS011;3966;51.052;13.820;2022-08-18T15:41:31;9.60;;;6.07;;
7841;SDS011;3966;51.052;13.820;2022-08-18T15:43:57;9.85;;;5.82;;
7841;SDS011;3966;51.052;13.820;2022-08-18T15:46:24;8.55;;;6.03;;
7841;SDS011;3966;51.052;13.820;2022-08-18T15:48:50;8.18;;;6.68;;
7841;SDS011;3966;51.052;13.820;2022-08-18T15:51:16;7.78;;;6.50;;
7841;SDS011;3966;51.052;13.820;2022-08-18T15:53:41;10.52;;;6.57;;
7841;SDS011;3966;51.052;13.820;2022-08-18T15:56:20;10.07;;;6.55;;
7841;SDS011;3966;51.052;13.820;2022-08-18T15:58:47;11.35;;;6.53;;
7841;SDS011;3966;51.052;13.820;2022-08-18T16:01:13;10.73;;;6.10;;
7841;SDS011;3966;51.052;13.820;2022-08-18T16:03:40;9.50;;;6.00;;
7841;SDS011;3966;51.052;13.820;2022-08-18T16:06:05;11.43;;;6.50;;
7841;SDS011;3966;51.052;13.820;2022-08-18T16:08:36;8.82;;;6.55;;
7841;SDS011;3966;51.052;13.820;2022-08-18T16:11:05;11.95;;;5.88;;
7841;SDS011;3966;51.052;13.820;2022-08-18T16:13:32;6.90;;;6.20;;
7841;SDS011;3966;51.052;13.820;2022-08-18T16:15:58;7.85;;;6.50;;
7841;SDS011;3966;51.052;13.820;2022-08-18T16:18:23;7.78;;;6.22;;
7841;SDS011;3966;51.052;13.820;2022-08-18T16:20:49;10.90;;;6.50;;
7841;SDS011;3966;51.052;13.820;2022-08-18T16:23:14;9.05;;;6.13;;
7841;SDS011;3966;51.052;13.820;2022-08-18T16:25:40;8.73;;;6.40;;
7841;SDS011;3966;51.052;13.820;2022-08-18T16:28:07;11.20;;;6.10;;
7841;SDS011;3966;51.052;13.820;2022-08-18T16:30:34;9.75;;;6.00;;
7841;SDS011;3966;51.052;13.820;2022-08-18T16:33:00;14.55;;;6.55;;
7841;SDS011;3966;51.052;13.820;2022-08-18T16:35:27;9.15;;;6.50;;
7841;SDS011;3966;51.052;13.820;2022-08-18T16:37:53;9.98;;;6.57;;
7841;SDS011;3966;51.052;13.820;2022-08-18T16:40:19;10.30;;;6.60;;
7841;SDS011;3966;51.052;13.820;2022-08-18T16:42:45;9.70;;;6.47;;
7841;SDS011;3966;51.052;13.820;2022-08-18T16:45:11;9.43;;;6.07;;
7841;SDS011;3966;51.052;13.820;2022-08-18T16:47:37;14.43;;;6.75;;
7841;SDS011;3966;51.052;13.820;2022-08-18T16:50:09;10.15;;;6.32;;
7841;SDS011;3966;51.052;13.820;2022-08-18T16:52:37;11.00;;;6.88;;
7841;SDS011;3966;51.052;13.820;2022-08-18T16:55:03;8.30;;;6.82;;
7841;SDS011;3966;51.052;13.820;2022-08-18T16:57:30;14.98;;;6.85;;
7841;SDS011;3966;51.052;13.820;2022-08-18T17:00:14;7.63;;;6.88;;
7841;SDS011;3966;51.052;13.820;2022-08-18T17:03:04;13.70;;;6.73;;
7841;SDS011;3966;51.052;13.820;2022-08-18T17:05:57;11.00;;;7.03;;
7841;SDS011;3966;51.052;13.820;2022-08-18T17:08:27;8.07;;;5.75;;
7841;SDS011;3966;51.052;13.820;2022-08-18T17:10:52;8.90;;;7.35;;
7841;SDS011;3966;51.052;13.820;2022-08-18T17:13:18;9.32;;;6.88;;
7841;SDS011;3966;51.052;13.820;2022-08-18T17:15:48;13.00;;;6.47;;
7841;SDS011;3966;51.052;13.820;2022-08-18T17:18:14;7.22;;;6.30;;
7841;SDS011;3966;51.052;13.820;2022-08-18T17:20:40;8.05;;;6.60;;
7841;SDS011;3966;51.052;13.820;2022-08-18T17:23:07;9.18;;;7.00;;
7841;SDS011;3966;51.052;13.820;2022-08-18T17:25:33;16.60;;;7.10;;
7841;SDS011;3966;51.052;13.820;2022-08-18T17:27:59;12.10;;;6.35;;
7841;SDS011;3966;51.052;13.820;2022-08-18T17:30:26;10.95;;;6.55;;
7841;SDS011;3966;51.052;13.820;2022-08-18T17:35:52;8.60;;;6.97;;